Time;durP1;ratioP1;P1;durP2;ratioP2;P2;SDS_P1;SDS_P2;PMS_P1;PMS_P2;Temp;Humidity;BMP_temperature;BMP_pressure;BME280_temperature;BME280_humidity;BME280_pressure;Samples;Min_cycle;Max_cycle;Signal;HPM_P1;HPM_P2
2021/07/10 00:00:29;0.00;0.00;0.62;0.00;0.00;0.62;5.20;4.20;;;28.00;40.80;;;;;;2281209;60;20353;-61
2021/07/10 00:02:55;0.00;0.00;0.62;0.00;0.00;0.62;4.13;3.83;;;28.00;40.70;;;;;;2281884;60;20381;-62
2021/07/10 00:05:22;0.00;0.00;0.62;0.00;0.00;0.62;6.20;4.20;;;27.90;40.60;;;;;;2282037;60;20378;-63
2021/07/10 00:07:50;0.00;0.00;0.62;0.00;0.00;0.62;5.00;4.60;;;27.90;40.70;;;;;;2280845;60;20346;-63
2021/07/10 00:10:18;0.00;0.00;0.62;0.00;0.00;0.62;4.80;4.40;;;27.90;40.60;;;;;;2281922;60;20362;-64
2021/07/10 00:12:45;0.00;0.00;0.62;0.00;0.00;0.62;5.33;4.07;;;27.90;40.70;;;;;;2281786;60;20695;-62
2021/07/10 00:15:16;0.00;0.00;0.62;0.00;0.00;0.62;5.70;3.80;;;27.90;40.60;;;;;;2281310;60;20616;-61
2021/07/10 00:17:43;0.00;0.00;0.62;0.00;0.00;0.62;5.93;4.90;;;27.90;40.70;;;;;;2281988;60;20377;-62
2021/07/10 00:20:11;0.00;0.00;0.62;0.00;0.00;0.62;4.33;4.00;;;27.90;40.60;;;;;;2281988;60;20347;-61
2021/07/10 00:22:38;0.00;0.00;0.62;0.00;0.00;0.62;4.60;4.10;;;27.90;40.60;;;;;;2281630;60;20381;-63
2021/07/10 00:25:08;0.00;0.00;0.62;0.00;0.00;0.62;4.40;4.03;;;27.90;40.60;;;;;;2282608;60;20354;-62
2021/07/10 00:27:34;0.00;0.00;0.62;0.00;0.00;0.62;4.30;3.97;;;27.90;40.60;;;;;;2282624;60;20625;-63
2021/07/10 00:30:02;0.00;0.00;0.62;0.00;0.00;0.62;4.53;4.20;;;27.90;40.60;;;;;;2281978;60;20354;-61
2021/07/10 00:32:28;0.00;0.00;0.62;0.00;0.00;0.62;3.83;3.53;;;27.90;40.80;;;;;;2282397;60;20379;-63
2021/07/10 00:34:55;0.00;0.00;0.62;0.00;0.00;0.62;4.30;3.57;;;27.80;40.50;;;;;;2282632;60;20565;-64
2021/07/10 00:37:21;0.00;0.00;0.62;0.00;0.00;0.62;4.67;4.27;;;27.80;40.50;;;;;;2282017;60;20398;-61
2021/07/10 00:39:48;0.00;0.00;0.62;0.00;0.00;0.62;4.10;3.63;;;27.80;40.50;;;;;;2282547;60;20354;-63
2021/07/10 00:42:19;0.00;0.00;0.62;0.00;0.00;0.62;5.70;4.53;;;27.80;40.40;;;;;;2282377;60;20393;-64
2021/07/10 00:44:46;0.00;0.00;0.62;0.00;0.00;0.62;6.77;3.93;;;27.80;40.40;;;;;;2281915;60;20355;-62
2021/07/10 00:47:12;0.00;0.00;0.62;0.00;0.00;0.62;4.47;4.13;;;27.80;40.40;;;;;;2282521;60;20613;-62
2021/07/10 00:49:39;0.00;0.00;0.62;0.00;0.00;0.62;4.80;3.83;;;27.80;40.40;;;;;;2282110;60;20350;-63
2021/07/10 00:52:06;0.00;0.00;0.62;0.00;0.00;0.62;4.60;4.20;;;27.80;40.40;;;;;;2281253;60;20357;-63
2021/07/10 00:54:32;0.00;0.00;0.62;0.00;0.00;0.62;5.13;3.97;;;27.80;40.40;;;;;;2282513;60;20351;-63
2021/07/10 00:57:01;0.00;0.00;0.62;0.00;0.00;0.62;4.00;3.70;;;27.80;40.40;;;;;;2282590;60;20346;-63
2021/07/10 00:59:29;0.00;0.00;0.62;0.00;0.00;0.62;4.20;3.80;;;27.80;40.40;;;;;;2281483;60;20346;-64
2021/07/10 01:01:56;0.00;0.00;0.62;0.00;0.00;0.62;4.43;4.13;;;27.80;40.40;;;;;;2282401;60;20351;-62
2021/07/10 01:04:23;0.00;0.00;0.62;0.00;0.00;0.62;4.10;3.70;;;27.80;40.40;;;;;;2282470;60;20626;-66
2021/07/10 01:06:49;0.00;0.00;0.62;0.00;0.00;0.62;7.60;3.97;;;27.80;40.40;;;;;;2281844;60;20376;-64
2021/07/10 01:09:16;0.00;0.00;0.62;0.00;0.00;0.62;6.83;4.27;;;27.80;40.40;;;;;;2282497;60;20340;-63
2021/07/10 01:11:43;0.00;0.00;0.62;0.00;0.00;0.62;5.53;4.20;;;27.80;40.40;;;;;;2282446;60;20354;-64
2021/07/10 01:14:11;0.00;0.00;0.62;0.00;0.00;0.62;6.03;4.03;;;27.70;40.30;;;;;;2281350;60;20421;-64
2021/07/10 01:16:39;0.00;0.00;0.62;0.00;0.00;0.62;4.50;4.10;;;27.70;40.20;;;;;;2282570;60;20710;-64
2021/07/10 01:19:05;0.00;0.00;0.62;0.00;0.00;0.62;5.57;4.90;;;27.70;40.30;;;;;;2282506;60;20394;-64
2021/07/10 01:21:33;0.00;0.00;0.62;0.00;0.00;0.62;4.50;4.10;;;27.70;40.30;;;;;;2281608;60;20350;-63
2021/07/10 01:24:00;0.00;0.00;0.62;0.00;0.00;0.62;5.50;4.33;;;27.70;40.20;;;;;;2282460;60;20392;-65
2021/07/10 01:26:26;0.00;0.00;0.62;0.00;0.00;0.62;4.97;4.10;;;27.70;40.20;;;;;;2282358;60;20382;-64
2021/07/10 01:28:53;0.00;0.00;0.62;0.00;0.00;0.62;4.70;4.30;;;27.70;40.20;;;;;;2281812;60;20358;-63
2021/07/10 01:31:23;0.00;0.00;0.62;0.00;0.00;0.62;4.53;4.13;;;27.70;40.20;;;;;;2282378;60;20355;-62
2021/07/10 01:33:49;0.00;0.00;0.62;0.00;0.00;0.62;4.77;4.37;;;27.70;40.20;;;;;;2282294;60;20487;-63
2021/07/10 01:36:16;0.00;0.00;0.62;0.00;0.00;0.62;5.07;4.63;;;27.70;40.10;;;;;;2281695;60;20345;-63
2021/07/10 01:38:43;0.00;0.00;0.62;0.00;0.00;0.62;5.57;5.17;;;27.70;40.10;;;;;;2282502;60;20350;-65
2021/07/10 01:41:10;0.00;0.00;0.62;0.00;0.00;0.62;5.07;4.67;;;27.70;40.10;;;;;;2282353;60;20350;-65
2021/07/10 01:43:37;0.00;0.00;0.62;0.00;0.00;0.62;4.63;4.10;;;27.70;40.10;;;;;;2281717;60;20381;-64
2021/07/10 01:46:03;0.00;0.00;0.62;0.00;0.00;0.62;4.33;3.93;;;27.70;40.10;;;;;;2282236;60;20381;-62
2021/07/10 01:48:30;0.00;0.00;0.62;0.00;0.00;0.62;6.97;3.80;;;27.70;40.00;;;;;;2282407;60;20351;-65
2021/07/10 01:50:56;0.00;0.00;0.62;0.00;0.00;0.62;4.67;4.27;;;27.70;40.00;;;;;;2281206;60;20825;-63
2021/07/10 01:53:23;0.00;0.00;0.62;0.00;0.00;0.62;4.87;4.47;;;27.60;39.90;;;;;;2282267;60;20374;-62
2021/07/10 01:55:51;0.00;0.00;0.62;0.00;0.00;0.62;6.20;4.63;;;27.60;39.90;;;;;;2282399;60;20388;-63
2021/07/10 01:58:18;0.00;0.00;0.62;0.00;0.00;0.62;5.43;4.90;;;27.60;39.90;;;;;;2281686;60;20347;-65
2021/07/10 02:00:46;0.00;0.00;0.62;0.00;0.00;0.62;6.00;4.40;;;27.60;39.90;;;;;;2281785;60;20371;-64
2021/07/10 02:03:14;0.00;0.00;0.62;0.00;0.00;0.62;4.67;4.27;;;27.60;39.90;;;;;;2282215;60;20370;-64
2021/07/10 02:05:40;0.00;0.00;0.62;0.00;0.00;0.62;5.57;4.10;;;27.60;39.80;;;;;;2281497;60;20367;-62
2021/07/10 02:08:09;0.00;0.00;0.62;0.00;0.00;0.62;5.90;4.03;;;27.60;39.90;;;;;;2281876;60;20447;-64
2021/07/10 02:10:36;0.00;0.00;0.62;0.00;0.00;0.62;7.23;4.07;;;27.60;39.80;;;;;;2282262;60;20362;-64
2021/07/10 02:13:09;0.00;0.00;0.62;0.00;0.00;0.62;7.73;4.07;;;27.60;39.80;;;;;;2281549;60;20408;-64
2021/07/10 02:15:36;0.00;0.00;0.62;0.00;0.00;0.62;6.40;4.20;;;27.60;39.80;;;;;;2282288;60;20359;-62
2021/07/10 02:18:04;0.00;0.00;0.62;0.00;0.00;0.62;4.90;4.40;;;27.50;39.70;;;;;;2282368;60;20421;-62
2021/07/10 02:20:33;0.00;0.00;0.62;0.00;0.00;0.62;6.63;4.23;;;27.50;39.80;;;;;;2281510;60;20363;-64
2021/07/10 02:23:00;0.00;0.00;0.62;0.00;0.00;0.62;4.57;4.20;;;27.50;39.80;;;;;;2282187;60;20370;-63
2021/07/10 02:25:29;0.00;0.00;0.62;0.00;0.00;0.62;4.80;4.17;;;27.50;39.80;;;;;;2282240;60;20433;-63
2021/07/10 02:27:56;0.00;0.00;0.62;0.00;0.00;0.62;4.40;4.03;;;27.50;39.80;;;;;;2281643;60;20385;-64
2021/07/10 02:30:27;0.00;0.00;0.62;0.00;0.00;0.62;5.27;4.77;;;27.50;39.80;;;;;;2282117;60;20721;-61
2021/07/10 02:32:55;0.00;0.00;0.62;0.00;0.00;0.62;4.67;4.20;;;27.50;39.80;;;;;;2282037;60;20712;-64
2021/07/10 02:35:22;0.00;0.00;0.62;0.00;0.00;0.62;4.57;4.10;;;27.50;39.80;;;;;;2281617;60;20393;-65
2021/07/10 02:37:49;0.00;0.00;0.62;0.00;0.00;0.62;5.20;4.70;;;27.50;39.70;;;;;;2282250;60;20683;-63
2021/07/10 02:40:19;0.00;0.00;0.62;0.00;0.00;0.62;5.03;4.53;;;27.50;39.70;;;;;;2282242;60;20710;-64
2021/07/10 02:42:48;0.00;0.00;0.62;0.00;0.00;0.62;5.40;4.90;;;27.40;39.70;;;;;;2281440;60;20370;-64
2021/07/10 02:45:17;0.00;0.00;0.62;0.00;0.00;0.62;5.03;4.53;;;27.40;39.60;;;;;;2281343;60;20380;-63
2021/07/10 02:47:46;0.00;0.00;0.62;0.00;0.00;0.62;4.97;4.33;;;27.40;39.70;;;;;;2280929;60;20382;-64
2021/07/10 02:50:17;0.00;0.00;0.62;0.00;0.00;0.62;4.37;3.97;;;27.40;39.60;;;;;;2281359;60;20362;-63
2021/07/10 02:52:44;0.00;0.00;0.62;0.00;0.00;0.62;6.63;4.23;;;27.40;39.60;;;;;;2281605;60;20370;-64
2021/07/10 02:55:11;0.00;0.00;0.62;0.00;0.00;0.62;6.37;4.90;;;27.40;39.60;;;;;;2281744;60;20392;-64
2021/07/10 02:57:38;0.00;0.00;0.62;0.00;0.00;0.62;7.00;4.80;;;27.40;39.60;;;;;;2280828;60;20349;-62
2021/07/10 03:00:09;0.00;0.00;0.62;0.00;0.00;0.62;5.57;4.40;;;27.40;39.60;;;;;;2282021;60;20361;-61
2021/07/10 03:02:36;0.00;0.00;0.62;0.00;0.00;0.62;5.47;4.03;;;27.40;39.60;;;;;;2281629;60;20499;-63
2021/07/10 03:05:05;0.00;0.00;0.62;0.00;0.00;0.62;4.97;4.50;;;27.40;39.60;;;;;;2281275;60;20362;-64
2021/07/10 03:07:32;0.00;0.00;0.62;0.00;0.00;0.62;5.10;4.57;;;27.40;39.60;;;;;;2281705;60;20386;-64
2021/07/10 03:09:59;0.00;0.00;0.62;0.00;0.00;0.62;4.10;3.70;;;27.40;39.60;;;;;;2281648;60;20445;-64
2021/07/10 03:12:26;0.00;0.00;0.62;0.00;0.00;0.62;4.20;3.90;;;27.40;39.60;;;;;;2281120;60;20381;-63
2021/07/10 03:14:52;0.00;0.00;0.62;0.00;0.00;0.62;6.20;4.83;;;27.30;39.60;;;;;;2281718;60;20354;-62
2021/07/10 03:17:19;0.00;0.00;0.62;0.00;0.00;0.62;6.70;4.90;;;27.30;39.60;;;;;;2281684;60;20391;-62
2021/07/10 03:19:45;0.00;0.00;0.62;0.00;0.00;0.62;5.73;4.33;;;27.30;39.60;;;;;;2281296;60;20351;-62
2021/07/10 03:22:13;0.00;0.00;0.62;0.00;0.00;0.62;5.40;4.90;;;27.30;39.60;;;;;;2281470;60;20422;-64
2021/07/10 03:24:40;0.00;0.00;0.62;0.00;0.00;0.62;4.97;4.50;;;27.30;39.60;;;;;;2281583;60;20682;-65
2021/07/10 03:27:08;0.00;0.00;0.62;0.00;0.00;0.62;5.10;4.57;;;27.30;39.50;;;;;;2281227;60;20377;-64
2021/07/10 03:29:35;0.00;0.00;0.62;0.00;0.00;0.62;5.10;4.40;;;27.30;39.50;;;;;;2281680;60;20356;-63
2021/07/10 03:32:01;0.00;0.00;0.62;0.00;0.00;0.62;10.60;4.47;;;27.30;39.60;;;;;;2281504;60;20414;-61
2021/07/10 03:34:28;0.00;0.00;0.62;0.00;0.00;0.62;4.53;4.13;;;27.30;40.20;;;;;;2281204;60;20361;-61
2021/07/10 03:36:55;0.00;0.00;0.62;0.00;0.00;0.62;5.37;4.87;;;27.20;39.50;;;;;;2281578;60;20350;-62
2021/07/10 03:39:22;0.00;0.00;0.62;0.00;0.00;0.62;4.73;4.33;;;27.20;39.40;;;;;;2281642;60;20351;-62
2021/07/10 03:41:49;0.00;0.00;0.62;0.00;0.00;0.62;4.70;4.30;;;27.20;39.40;;;;;;2280629;60;20354;-63
2021/07/10 03:44:15;0.00;0.00;0.62;0.00;0.00;0.62;5.07;4.57;;;27.20;39.40;;;;;;2281512;60;20374;-63
2021/07/10 03:46:42;0.00;0.00;0.62;0.00;0.00;0.62;4.87;4.47;;;27.20;39.40;;;;;;2281542;60;20378;-64
2021/07/10 03:49:09;0.00;0.00;0.62;0.00;0.00;0.62;6.33;4.80;;;27.20;39.40;;;;;;2281236;60;20425;-62
2021/07/10 03:51:35;0.00;0.00;0.62;0.00;0.00;0.62;4.50;4.10;;;27.20;39.40;;;;;;2281467;60;20361;-64
2021/07/10 03:54:02;0.00;0.00;0.62;0.00;0.00;0.62;5.30;4.80;;;27.20;39.40;;;;;;2281590;60;20422;-63
2021/07/10 03:56:30;0.00;0.00;0.62;0.00;0.00;0.62;4.80;4.00;;;27.20;39.40;;;;;;2281110;60;20347;-63
2021/07/10 03:58:56;0.00;0.00;0.62;0.00;0.00;0.62;7.30;4.33;;;27.20;39.40;;;;;;2282423;60;20354;-64
2021/07/10 04:01:23;0.00;0.00;0.62;0.00;0.00;0.62;4.90;4.40;;;27.20;39.40;;;;;;2282111;60;20350;-62
2021/07/10 04:03:49;0.00;0.00;0.62;0.00;0.00;0.62;4.73;4.10;;;27.20;39.30;;;;;;2281909;60;20370;-64
2021/07/10 04:06:16;0.00;0.00;0.62;0.00;0.00;0.62;5.10;4.60;;;27.20;39.30;;;;;;2281720;60;20443;-62
2021/07/10 04:08:42;0.00;0.00;0.62;0.00;0.00;0.62;4.73;4.40;;;27.20;39.30;;;;;;2282243;60;20394;-64
2021/07/10 04:11:10;0.00;0.00;0.62;0.00;0.00;0.62;5.03;4.63;;;27.20;39.30;;;;;;2281778;60;20468;-61
2021/07/10 04:13:38;0.00;0.00;0.62;0.00;0.00;0.62;4.40;4.00;;;27.20;39.30;;;;;;2282148;60;20609;-63
2021/07/10 04:16:05;0.00;0.00;0.62;0.00;0.00;0.62;4.63;4.20;;;27.20;39.30;;;;;;2282298;60;20350;-62
2021/07/10 04:18:32;0.00;0.00;0.62;0.00;0.00;0.62;5.63;5.13;;;27.20;39.30;;;;;;2281890;60;20568;-61
2021/07/10 04:20:58;0.00;0.00;0.62;0.00;0.00;0.62;4.67;4.27;;;27.10;39.20;;;;;;2282154;60;20354;-62
2021/07/10 04:23:25;0.00;0.00;0.62;0.00;0.00;0.62;5.07;4.20;;;27.10;39.20;;;;;;2282237;60;20410;-63
2021/07/10 04:25:52;0.00;0.00;0.62;0.00;0.00;0.62;4.90;4.50;;;27.10;39.20;;;;;;2281704;60;20346;-65
2021/07/10 04:28:19;0.00;0.00;0.62;0.00;0.00;0.62;5.30;3.73;;;27.10;39.20;;;;;;2282216;60;20346;-64
2021/07/10 04:30:47;0.00;0.00;0.62;0.00;0.00;0.62;4.47;4.03;;;27.10;39.20;;;;;;2282212;60;20547;-63
2021/07/10 04:33:13;0.00;0.00;0.62;0.00;0.00;0.62;5.07;4.57;;;27.10;39.20;;;;;;2281646;60;20379;-62
2021/07/10 04:35:40;0.00;0.00;0.62;0.00;0.00;0.62;4.37;3.97;;;27.10;39.30;;;;;;2282292;60;20394;-64
2021/07/10 04:38:07;0.00;0.00;0.62;0.00;0.00;0.62;5.00;4.50;;;27.10;39.30;;;;;;2282233;60;20351;-62
2021/07/10 04:40:34;0.00;0.00;0.62;0.00;0.00;0.62;4.20;3.80;;;27.10;39.20;;;;;;2281799;60;20350;-61
2021/07/10 04:43:00;0.00;0.00;0.62;0.00;0.00;0.62;4.30;3.90;;;27.10;39.30;;;;;;2282060;60;20374;-64
2021/07/10 04:45:28;0.00;0.00;0.62;0.00;0.00;0.62;5.90;4.67;;;27.10;39.30;;;;;;2282329;60;20355;-62
2021/07/10 04:47:55;0.00;0.00;0.62;0.00;0.00;0.62;4.47;4.00;;;27.10;39.20;;;;;;2281887;60;20374;-62
2021/07/10 04:50:22;0.00;0.00;0.62;0.00;0.00;0.62;5.87;4.80;;;27.10;39.30;;;;;;2281616;60;20402;-62
2021/07/10 04:52:49;0.00;0.00;0.62;0.00;0.00;0.62;4.93;4.43;;;27.10;39.30;;;;;;2281972;60;20374;-63
2021/07/10 04:55:16;0.00;0.00;0.62;0.00;0.00;0.62;5.60;4.87;;;27.10;39.30;;;;;;2281935;60;20395;-64
2021/07/10 04:57:44;0.00;0.00;0.62;0.00;0.00;0.62;4.20;3.87;;;27.10;39.20;;;;;;2282008;60;20573;-64
2021/07/10 05:00:13;0.00;0.00;0.62;0.00;0.00;0.62;5.73;5.23;;;27.10;39.20;;;;;;2282197;60;20374;-62
2021/07/10 05:02:40;0.00;0.00;0.62;0.00;0.00;0.62;4.90;4.50;;;27.10;39.30;;;;;;2281151;60;20374;-61
2021/07/10 05:05:10;0.00;0.00;0.62;0.00;0.00;0.62;4.60;3.73;;;27.10;39.30;;;;;;2281986;60;20351;-62
2021/07/10 05:07:37;0.00;0.00;0.62;0.00;0.00;0.62;4.63;4.23;;;27.10;39.20;;;;;;2281904;60;20381;-62
2021/07/10 05:10:04;0.00;0.00;0.62;0.00;0.00;0.62;4.60;4.10;;;27.10;39.30;;;;;;2281356;60;20704;-64
2021/07/10 05:12:31;0.00;0.00;0.62;0.00;0.00;0.62;4.77;4.37;;;27.10;39.30;;;;;;2281719;60;20370;-62
2021/07/10 05:14:57;0.00;0.00;0.62;0.00;0.00;0.62;4.67;4.23;;;27.10;39.30;;;;;;2282110;60;20696;-62
2021/07/10 05:17:24;0.00;0.00;0.62;0.00;0.00;0.62;5.43;4.93;;;27.10;39.30;;;;;;2281955;60;20652;-62
2021/07/10 05:19:51;0.00;0.00;0.62;0.00;0.00;0.62;4.47;4.10;;;27.10;39.40;;;;;;2281931;60;20350;-65
2021/07/10 05:22:19;0.00;0.00;0.62;0.00;0.00;0.62;4.20;3.90;;;27.10;39.40;;;;;;2281892;60;20371;-64
2021/07/10 05:24:45;0.00;0.00;0.62;0.00;0.00;0.62;4.57;4.17;;;27.10;39.40;;;;;;2281739;60;20776;-64
2021/07/10 05:27:12;0.00;0.00;0.62;0.00;0.00;0.62;5.03;4.63;;;27.10;39.40;;;;;;2281864;60;20374;-65
2021/07/10 05:29:39;0.00;0.00;0.62;0.00;0.00;0.62;5.10;4.47;;;27.10;39.40;;;;;;2282046;60;20365;-63
2021/07/10 05:32:06;0.00;0.00;0.62;0.00;0.00;0.62;5.20;4.80;;;27.10;39.40;;;;;;2281783;60;20399;-63
2021/07/10 05:34:33;0.00;0.00;0.62;0.00;0.00;0.62;4.67;4.27;;;27.10;39.40;;;;;;2281450;60;20413;-62
2021/07/10 05:37:00;0.00;0.00;0.62;0.00;0.00;0.62;4.60;4.20;;;27.10;39.30;;;;;;2282004;60;20357;-62
2021/07/10 05:39:27;0.00;0.00;0.62;0.00;0.00;0.62;4.77;4.37;;;27.10;39.30;;;;;;2281850;60;20410;-64
2021/07/10 05:41:54;0.00;0.00;0.62;0.00;0.00;0.62;5.77;4.43;;;27.10;39.30;;;;;;2281648;60;20355;-64
2021/07/10 05:44:21;0.00;0.00;0.62;0.00;0.00;0.62;4.40;4.10;;;27.10;39.30;;;;;;2281830;60;20602;-61
2021/07/10 05:46:47;0.00;0.00;0.62;0.00;0.00;0.62;4.90;4.40;;;27.10;39.30;;;;;;2281361;60;20382;-63
2021/07/10 05:49:14;0.00;0.00;0.62;0.00;0.00;0.62;6.83;4.67;;;27.10;39.30;;;;;;2281860;60;20354;-61
2021/07/10 05:51:40;0.00;0.00;0.62;0.00;0.00;0.62;5.73;5.23;;;27.10;39.20;;;;;;2282051;60;20684;-63
2021/07/10 05:54:07;0.00;0.00;0.62;0.00;0.00;0.62;5.23;4.73;;;27.10;39.10;;;;;;2281957;60;20559;-66
2021/07/10 05:56:35;0.00;0.00;0.62;0.00;0.00;0.62;4.73;4.33;;;27.10;39.10;;;;;;2281518;60;20402;-64
2021/07/10 05:59:02;0.00;0.00;0.62;0.00;0.00;0.62;5.40;4.70;;;27.00;39.10;;;;;;2281508;60;20354;-65
2021/07/10 06:01:28;0.00;0.00;0.62;0.00;0.00;0.62;6.10;5.60;;;27.00;39.20;;;;;;2281818;60;20575;-67
2021/07/10 06:03:55;0.00;0.00;0.62;0.00;0.00;0.62;5.90;5.30;;;27.00;39.10;;;;;;2281443;60;20378;-66
2021/07/10 06:06:21;0.00;0.00;0.62;0.00;0.00;0.62;6.13;5.63;;;27.00;38.90;;;;;;2281580;60;20776;-65
2021/07/10 06:08:48;0.00;0.00;0.62;0.00;0.00;0.62;6.40;5.30;;;27.00;38.80;;;;;;2282082;60;20350;-66
2021/07/10 06:11:17;0.00;0.00;0.62;0.00;0.00;0.62;5.93;5.30;;;27.00;38.80;;;;;;2281129;60;20370;-65
2021/07/10 06:13:45;0.00;0.00;0.62;0.00;0.00;0.62;6.60;5.90;;;27.00;38.80;;;;;;2281730;60;20375;-63
2021/07/10 06:16:11;0.00;0.00;0.62;0.00;0.00;0.62;5.30;4.90;;;27.00;38.80;;;;;;2281783;60;20358;-65
2021/07/10 06:18:38;0.00;0.00;0.62;0.00;0.00;0.62;6.20;5.60;;;27.00;38.90;;;;;;2281698;60;20683;-65
2021/07/10 06:21:05;0.00;0.00;0.62;0.00;0.00;0.62;6.80;6.20;;;27.00;38.50;;;;;;2282145;60;20683;-65
2021/07/10 06:23:32;0.00;0.00;0.62;0.00;0.00;0.62;6.03;5.43;;;26.90;38.30;;;;;;2282292;60;20660;-62
2021/07/10 06:25:59;0.00;0.00;0.62;0.00;0.00;0.62;6.03;5.53;;;26.90;38.20;;;;;;2282040;60;20355;-64
2021/07/10 06:28:27;0.00;0.00;0.62;0.00;0.00;0.62;5.40;4.90;;;26.90;38.30;;;;;;2282291;60;20683;-68
2021/07/10 06:30:56;0.00;0.00;0.62;0.00;0.00;0.62;5.90;5.30;;;26.90;38.40;;;;;;2282321;60;20347;-67
2021/07/10 06:33:23;0.00;0.00;0.62;0.00;0.00;0.62;7.07;6.37;;;26.90;38.50;;;;;;2281792;60;20402;-65
2021/07/10 06:35:49;0.00;0.00;0.62;0.00;0.00;0.62;7.13;6.53;;;26.80;38.10;;;;;;2282283;60;20355;-66
2021/07/10 06:38:16;0.00;0.00;0.62;0.00;0.00;0.62;6.30;5.70;;;26.80;38.00;;;;;;2282270;60;20372;-65
2021/07/10 06:40:42;0.00;0.00;0.62;0.00;0.00;0.62;6.93;6.30;;;26.80;38.10;;;;;;2281809;60;20351;-67
2021/07/10 06:43:09;0.00;0.00;0.62;0.00;0.00;0.62;6.03;5.43;;;26.80;38.30;;;;;;2282195;60;20374;-65
2021/07/10 06:45:36;0.00;0.00;0.62;0.00;0.00;0.62;5.47;4.97;;;26.80;38.40;;;;;;2282217;60;20398;-63
2021/07/10 06:48:05;0.00;0.00;0.62;0.00;0.00;0.62;5.27;4.80;;;26.80;38.50;;;;;;2281803;60;20408;-65
2021/07/10 06:50:32;0.00;0.00;0.62;0.00;0.00;0.62;6.13;5.43;;;26.80;38.50;;;;;;2282270;60;20706;-66
2021/07/10 06:52:58;0.00;0.00;0.62;0.00;0.00;0.62;5.13;4.63;;;26.80;38.50;;;;;;2281955;60;20370;-65
2021/07/10 06:55:25;0.00;0.00;0.62;0.00;0.00;0.62;6.20;5.60;;;26.90;38.60;;;;;;2281835;60;20407;-64
2021/07/10 06:57:51;0.00;0.00;0.62;0.00;0.00;0.62;6.83;6.13;;;26.90;38.60;;;;;;2282215;60;20742;-63
2021/07/10 07:00:19;0.00;0.00;0.62;0.00;0.00;0.62;7.20;6.50;;;26.90;38.20;;;;;;2282186;60;20351;-64
2021/07/10 07:02:46;0.00;0.00;0.62;0.00;0.00;0.62;7.07;6.40;;;26.90;38.00;;;;;;2281603;60;20476;-63
2021/07/10 07:05:15;0.00;0.00;0.62;0.00;0.00;0.62;6.03;5.40;;;26.90;37.90;;;;;;2282343;60;20358;-62
2021/07/10 07:07:42;0.00;0.00;0.62;0.00;0.00;0.62;6.22;5.63;;;26.80;37.90;;;;;;2282066;60;20573;-62
2021/07/10 07:10:11;0.00;0.00;0.62;0.00;0.00;0.62;8.90;5.43;;;26.90;38.10;;;;;;2281674;60;20615;-68
2021/07/10 07:12:39;0.00;0.00;0.62;0.00;0.00;0.62;6.10;5.50;;;26.90;38.20;;;;;;2282025;60;20393;-68
2021/07/10 07:15:09;0.00;0.00;0.62;0.00;0.00;0.62;6.83;6.23;;;26.80;38.10;;;;;;2282139;60;20351;-64
2021/07/10 07:17:36;0.00;0.00;0.62;0.00;0.00;0.62;6.33;5.70;;;26.90;38.00;;;;;;2281801;60;20358;-63
2021/07/10 07:20:05;0.00;0.00;0.62;0.00;0.00;0.62;6.80;6.20;;;26.90;38.00;;;;;;2282163;60;20456;-64
2021/07/10 07:22:33;0.00;0.00;0.62;0.00;0.00;0.62;6.23;4.67;;;26.80;37.90;;;;;;2281964;60;20455;-61
2021/07/10 07:25:00;0.00;0.00;0.62;0.00;0.00;0.62;6.07;5.47;;;26.80;37.90;;;;;;2281797;60;20374;-63
2021/07/10 07:27:27;0.00;0.00;0.62;0.00;0.00;0.62;6.50;5.97;;;26.80;37.80;;;;;;2282135;60;20382;-66
2021/07/10 07:29:53;0.00;0.00;0.62;0.00;0.00;0.62;5.27;4.87;;;26.80;37.60;;;;;;2281620;60;20347;-66
2021/07/10 07:32:20;0.00;0.00;0.62;0.00;0.00;0.62;6.00;5.10;;;26.80;37.80;;;;;;2281377;60;20371;-64
2021/07/10 07:34:48;0.00;0.00;0.62;0.00;0.00;0.62;6.83;5.50;;;26.80;37.80;;;;;;2282182;60;20354;-65
2021/07/10 07:37:15;0.00;0.00;0.62;0.00;0.00;0.62;6.57;5.50;;;26.80;37.90;;;;;;2282064;60;20417;-64
2021/07/10 07:39:46;0.00;0.00;0.62;0.00;0.00;0.62;5.27;4.77;;;26.80;37.90;;;;;;2281664;60;20399;-63
2021/07/10 07:42:14;0.00;0.00;0.62;0.00;0.00;0.62;6.57;5.97;;;26.80;38.00;;;;;;2281946;60;20350;-64
2021/07/10 07:44:41;0.00;0.00;0.62;0.00;0.00;0.62;6.67;6.07;;;26.80;38.00;;;;;;2282070;60;20358;-67
2021/07/10 07:47:09;0.00;0.00;0.62;0.00;0.00;0.62;6.00;5.50;;;26.80;38.00;;;;;;2281573;60;20374;-64
2021/07/10 07:49:36;0.00;0.00;0.62;0.00;0.00;0.62;6.00;5.30;;;26.80;38.10;;;;;;2280219;60;20370;-61
2021/07/10 07:52:03;0.00;0.00;0.62;0.00;0.00;0.62;4.90;4.50;;;26.80;38.20;;;;;;2277697;61;20435;-62
2021/07/10 07:54:30;0.00;0.00;0.62;0.00;0.00;0.62;10.10;8.07;;;26.80;38.20;;;;;;2277545;61;20351;-62
2021/07/10 07:56:58;0.00;0.00;0.62;0.00;0.00;0.62;7.00;6.40;;;26.90;37.90;;;;;;2278062;61;20419;-65
2021/07/10 07:59:25;0.00;0.00;0.62;0.00;0.00;0.62;6.93;5.57;;;26.80;37.60;;;;;;2277601;61;20359;-67
2021/07/10 08:01:52;0.00;0.00;0.62;0.00;0.00;0.62;7.93;6.20;;;26.80;37.60;;;;;;2273643;61;20635;-65
2021/07/10 08:04:19;0.00;0.00;0.62;0.00;0.00;0.62;6.43;5.73;;;26.80;37.60;;;;;;2273848;61;20376;-63
2021/07/10 08:06:45;0.00;0.00;0.62;0.00;0.00;0.62;6.87;6.20;;;26.80;37.60;;;;;;2273908;61;20399;-64
2021/07/10 08:09:12;0.00;0.00;0.62;0.00;0.00;0.62;6.13;5.53;;;26.80;37.60;;;;;;2273390;61;20352;-64
2021/07/10 08:11:39;0.00;0.00;0.62;0.00;0.00;0.62;5.90;5.33;;;26.90;37.80;;;;;;2276222;60;20368;-63
2021/07/10 08:14:07;0.00;0.00;0.62;0.00;0.00;0.62;5.50;5.00;;;26.90;37.90;;;;;;2273591;61;20375;-65
2021/07/10 08:16:34;0.00;0.00;0.62;0.00;0.00;0.62;5.93;5.37;;;26.90;37.90;;;;;;2273015;61;20678;-66
2021/07/10 08:19:01;0.00;0.00;0.62;0.00;0.00;0.62;6.23;5.63;;;26.90;38.00;;;;;;2272336;61;20367;-63
2021/07/10 08:21:29;0.00;0.00;0.62;0.00;0.00;0.62;9.13;6.47;;;26.90;38.00;;;;;;2276364;61;20359;-61
2021/07/10 08:23:58;0.00;0.00;0.62;0.00;0.00;0.62;6.03;5.50;;;26.90;38.00;;;;;;2277750;61;20398;-63
2021/07/10 08:26:25;0.00;0.00;0.62;0.00;0.00;0.62;5.90;5.27;;;27.00;38.10;;;;;;2273896;61;20478;-62
2021/07/10 08:28:52;0.00;0.00;0.62;0.00;0.00;0.62;6.33;5.73;;;27.00;38.10;;;;;;2273855;61;20360;-64
2021/07/10 08:31:20;0.00;0.00;0.62;0.00;0.00;0.62;7.57;6.87;;;27.00;38.00;;;;;;2273541;61;20690;-63
2021/07/10 08:33:48;0.00;0.00;0.62;0.00;0.00;0.62;7.13;6.40;;;27.00;38.00;;;;;;2273464;61;20376;-62
2021/07/10 08:36:14;0.00;0.00;0.62;0.00;0.00;0.62;5.60;5.10;;;27.00;37.90;;;;;;2273834;61;20355;-62
2021/07/10 08:38:41;0.00;0.00;0.62;0.00;0.00;0.62;5.93;5.43;;;27.10;38.00;;;;;;2273635;61;20352;-62
2021/07/10 08:41:10;0.00;0.00;0.62;0.00;0.00;0.62;6.23;5.43;;;27.10;37.90;;;;;;2273443;61;20390;-61
2021/07/10 08:43:38;0.00;0.00;0.62;0.00;0.00;0.62;6.30;5.70;;;27.10;37.90;;;;;;2274208;61;20502;-66
2021/07/10 08:46:06;0.00;0.00;0.62;0.00;0.00;0.62;6.97;5.73;;;27.10;38.00;;;;;;2272834;61;20363;-63
2021/07/10 08:48:35;0.00;0.00;0.62;0.00;0.00;0.62;6.30;5.80;;;27.10;37.90;;;;;;2273578;61;20381;-64
2021/07/10 08:51:04;0.00;0.00;0.62;0.00;0.00;0.62;7.73;6.93;;;27.10;37.80;;;;;;2273903;61;20391;-61
2021/07/10 08:53:31;0.00;0.00;0.62;0.00;0.00;0.62;7.40;6.40;;;27.10;37.40;;;;;;2274110;61;20372;-66
2021/07/10 08:55:58;0.00;0.00;0.62;0.00;0.00;0.62;9.07;7.17;;;27.10;37.50;;;;;;2273959;61;20360;-61
2021/07/10 08:58:25;0.00;0.00;0.62;0.00;0.00;0.62;8.63;7.80;;;27.10;37.40;;;;;;2273874;61;20374;-63
2021/07/10 09:00:52;0.00;0.00;0.62;0.00;0.00;0.62;8.50;7.33;;;27.10;37.20;;;;;;2274041;61;20363;-64
2021/07/10 09:03:19;0.00;0.00;0.62;0.00;0.00;0.62;8.57;7.67;;;27.10;37.20;;;;;;2273863;61;20372;-62
2021/07/10 09:05:47;0.00;0.00;0.62;0.00;0.00;0.62;7.73;7.03;;;27.10;37.20;;;;;;2274117;61;20349;-65
2021/07/10 09:08:21;0.00;0.00;0.62;0.00;0.00;0.62;9.73;8.77;;;27.10;37.30;;;;;;2274015;61;20645;-64
2021/07/10 09:10:55;0.00;0.00;0.62;0.00;0.00;0.62;12.50;9.50;;;27.10;37.10;;;;;;2273879;61;20368;-64
2021/07/10 09:13:30;0.00;0.00;0.62;0.00;0.00;0.62;8.23;7.43;;;27.10;36.80;;;;;;2274079;61;20421;-63
2021/07/10 09:16:02;0.00;0.00;0.62;0.00;0.00;0.62;8.10;7.37;;;27.10;36.90;;;;;;2274121;61;20394;-60
2021/07/10 09:18:40;0.00;0.00;0.62;0.00;0.00;0.62;9.70;8.70;;;27.00;36.80;;;;;;2273952;61;20591;-60
2021/07/10 09:21:09;0.00;0.00;0.62;0.00;0.00;0.62;8.23;7.40;;;27.00;36.80;;;;;;2276861;61;20392;-61
2021/07/10 09:23:39;0.00;0.00;0.62;0.00;0.00;0.62;6.03;5.40;;;27.00;36.90;;;;;;2274064;61;20591;-63
2021/07/10 09:26:20;0.00;0.00;0.62;0.00;0.00;0.62;6.97;6.37;;;27.00;37.00;;;;;;2273900;61;20360;-63
2021/07/10 09:29:03;0.00;0.00;0.62;0.00;0.00;0.62;6.73;5.67;;;27.00;37.20;;;;;;2274063;61;20676;-59
2021/07/10 09:31:33;0.00;0.00;0.62;0.00;0.00;0.62;8.00;7.20;;;27.00;37.30;;;;;;2273766;61;20355;-60
2021/07/10 09:34:06;0.00;0.00;0.62;0.00;0.00;0.62;7.80;7.00;;;27.00;37.40;;;;;;2274015;61;20463;-59
2021/07/10 09:36:35;0.00;0.00;0.62;0.00;0.00;0.62;7.00;6.40;;;27.00;37.40;;;;;;2274077;61;20352;-60
2021/07/10 09:39:10;0.00;0.00;0.62;0.00;0.00;0.62;8.07;7.20;;;27.00;37.40;;;;;;2273830;61;20357;-60
2021/07/10 09:41:36;0.00;0.00;0.62;0.00;0.00;0.62;7.20;6.10;;;27.00;37.30;;;;;;2273896;61;20382;-61